Terminal Aerodrome Forecast
Issued by NWS

Home | Current Version | Previous Version | Text Only | Print | Product List | Glossary On
Versions: 1 2 3 4 5 6 7 8 9 10 11 12 13 14 15 16 17 18 19 20 21
000
FTUS41 KBTV 291737
TAFMSS
TAF
KMSS 291737Z 2918/3018 06013G25KT P6SM FEW200
     FM292300 05008KT P6SM SCT140 BKN200
     FM300500 04004KT P6SM BKN120
     FM301500 05008KT P6SM BKN100=

USA.gov is the U.S. government's official web portal to all federal, state and local government web resources and services.